sensor_id;sensor_type;location;lat;lon;timestamp;P1;durP1;ratioP1;P2;durP2;ratioP2
14722;SDS011;7452;55.594;12.986;2023-04-29T00:00:44;6.67;;;3.47;;
14722;SDS011;7452;55.594;12.986;2023-04-29T00:03:11;3.87;;;2.70;;
14722;SDS011;7452;55.594;12.986;2023-04-29T00:05:38;3.97;;;2.53;;
14722;SDS011;7452;55.594;12.986;2023-04-29T00:08:05;6.73;;;3.07;;
14722;SDS011;7452;55.594;12.986;2023-04-29T00:10:31;5.80;;;3.37;;
14722;SDS011;7452;55.594;12.986;2023-04-29T00:12:58;6.37;;;3.23;;
14722;SDS011;7452;55.594;12.986;2023-04-29T00:15:27;5.40;;;3.23;;
14722;SDS011;7452;55.594;12.986;2023-04-29T00:17:54;6.50;;;3.40;;
14722;SDS011;7452;55.594;12.986;2023-04-29T00:20:21;6.80;;;2.83;;
14722;SDS011;7452;55.594;12.986;2023-04-29T00:22:48;7.33;;;3.17;;
14722;SDS011;7452;55.594;12.986;2023-04-29T00:25:15;4.37;;;2.40;;
14722;SDS011;7452;55.594;12.986;2023-04-29T00:27:42;7.60;;;2.90;;
14722;SDS011;7452;55.594;12.986;2023-04-29T00:30:09;5.73;;;2.90;;
14722;SDS011;7452;55.594;12.986;2023-04-29T00:32:38;4.30;;;3.47;;
14722;SDS011;7452;55.594;12.986;2023-04-29T00:35:05;5.67;;;3.27;;
14722;SDS011;7452;55.594;12.986;2023-04-29T00:37:32;5.37;;;2.83;;
14722;SDS011;7452;55.594;12.986;2023-04-29T00:39:59;4.93;;;3.10;;
14722;SDS011;7452;55.594;12.986;2023-04-29T00:42:26;6.57;;;3.63;;
14722;SDS011;7452;55.594;12.986;2023-04-29T00:44:54;4.97;;;2.60;;
14722;SDS011;7452;55.594;12.986;2023-04-29T00:47:21;6.43;;;3.40;;
14722;SDS011;7452;55.594;12.986;2023-04-29T00:49:49;4.73;;;3.30;;
14722;SDS011;7452;55.594;12.986;2023-04-29T00:52:17;4.77;;;3.17;;
14722;SDS011;7452;55.594;12.986;2023-04-29T00:54:44;4.83;;;3.07;;
14722;SDS011;7452;55.594;12.986;2023-04-29T00:57:13;8.00;;;5.07;;
14722;SDS011;7452;55.594;12.986;2023-04-29T00:59:40;7.87;;;3.70;;
14722;SDS011;7452;55.594;12.986;2023-04-29T01:02:07;4.63;;;3.37;;
14722;SDS011;7452;55.594;12.986;2023-04-29T01:04:33;6.67;;;3.60;;
14722;SDS011;7452;55.594;12.986;2023-04-29T01:07:05;5.93;;;3.67;;
14722;SDS011;7452;55.594;12.986;2023-04-29T01:09:43;6.13;;;3.67;;
14722;SDS011;7452;55.594;12.986;2023-04-29T01:12:19;7.17;;;3.70;;
14722;SDS011;7452;55.594;12.986;2023-04-29T01:14:53;6.63;;;3.80;;
14722;SDS011;7452;55.594;12.986;2023-04-29T01:17:27;5.77;;;3.37;;
14722;SDS011;7452;55.594;12.986;2023-04-29T01:19:57;4.43;;;3.70;;
14722;SDS011;7452;55.594;12.986;2023-04-29T01:22:27;4.17;;;3.77;;
14722;SDS011;7452;55.594;12.986;2023-04-29T01:24:55;7.70;;;4.10;;
14722;SDS011;7452;55.594;12.986;2023-04-29T01:27:26;8.63;;;4.23;;
14722;SDS011;7452;55.594;12.986;2023-04-29T01:29:57;6.60;;;3.53;;
14722;SDS011;7452;55.594;12.986;2023-04-29T01:32:36;7.30;;;4.27;;
14722;SDS011;7452;55.594;12.986;2023-04-29T01:35:10;7.00;;;4.13;;
14722;SDS011;7452;55.594;12.986;2023-04-29T01:37:48;5.00;;;3.70;;
14722;SDS011;7452;55.594;12.986;2023-04-29T01:40:29;5.90;;;3.77;;
14722;SDS011;7452;55.594;12.986;2023-04-29T01:43:00;8.60;;;3.73;;
14722;SDS011;7452;55.594;12.986;2023-04-29T01:45:28;7.23;;;4.20;;
14722;SDS011;7452;55.594;12.986;2023-04-29T01:47:57;6.80;;;4.37;;
14722;SDS011;7452;55.594;12.986;2023-04-29T01:50:25;4.53;;;3.83;;
14722;SDS011;7452;55.594;12.986;2023-04-29T01:52:52;5.63;;;4.23;;
14722;SDS011;7452;55.594;12.986;2023-04-29T01:55:19;7.83;;;4.67;;
14722;SDS011;7452;55.594;12.986;2023-04-29T01:57:48;6.07;;;4.30;;
14722;SDS011;7452;55.594;12.986;2023-04-29T02:00:14;6.53;;;4.37;;
14722;SDS011;7452;55.594;12.986;2023-04-29T02:02:41;7.57;;;4.10;;
14722;SDS011;7452;55.594;12.986;2023-04-29T02:05:08;7.20;;;4.00;;
14722;SDS011;7452;55.594;12.986;2023-04-29T02:07:35;5.90;;;4.37;;
14722;SDS011;7452;55.594;12.986;2023-04-29T02:10:02;6.40;;;4.20;;
14722;SDS011;7452;55.594;12.986;2023-04-29T02:12:30;5.07;;;4.10;;
14722;SDS011;7452;55.594;12.986;2023-04-29T02:14:58;7.37;;;4.40;;
14722;SDS011;7452;55.594;12.986;2023-04-29T02:17:25;5.33;;;4.00;;
14722;SDS011;7452;55.594;12.986;2023-04-29T02:19:52;7.57;;;4.50;;
14722;SDS011;7452;55.594;12.986;2023-04-29T02:22:19;6.73;;;4.47;;
14722;SDS011;7452;55.594;12.986;2023-04-29T02:24:46;6.10;;;4.50;;
14722;SDS011;7452;55.594;12.986;2023-04-29T02:27:13;11.63;;;7.93;;
14722;SDS011;7452;55.594;12.986;2023-04-29T02:29:40;7.00;;;5.27;;
14722;SDS011;7452;55.594;12.986;2023-04-29T02:32:09;8.37;;;4.47;;
14722;SDS011;7452;55.594;12.986;2023-04-29T02:34:36;7.47;;;4.60;;
14722;SDS011;7452;55.594;12.986;2023-04-29T02:37:02;8.20;;;4.37;;
14722;SDS011;7452;55.594;12.986;2023-04-29T02:39:30;7.93;;;5.03;;
14722;SDS011;7452;55.594;12.986;2023-04-29T02:41:57;5.53;;;4.40;;
14722;SDS011;7452;55.594;12.986;2023-04-29T02:44:24;9.93;;;4.87;;
14722;SDS011;7452;55.594;12.986;2023-04-29T02:46:51;5.73;;;4.73;;
14722;SDS011;7452;55.594;12.986;2023-04-29T02:49:19;8.90;;;5.17;;
14722;SDS011;7452;55.594;12.986;2023-04-29T02:51:46;8.63;;;4.67;;
14722;SDS011;7452;55.594;12.986;2023-04-29T02:54:14;6.23;;;4.80;;
14722;SDS011;7452;55.594;12.986;2023-04-29T02:56:41;9.37;;;4.63;;
14722;SDS011;7452;55.594;12.986;2023-04-29T02:59:08;8.57;;;5.40;;
14722;SDS011;7452;55.594;12.986;2023-04-29T03:01:35;7.13;;;4.53;;
14722;SDS011;7452;55.594;12.986;2023-04-29T03:04:03;11.10;;;7.23;;
14722;SDS011;7452;55.594;12.986;2023-04-29T03:06:32;8.83;;;6.33;;
14722;SDS011;7452;55.594;12.986;2023-04-29T03:08:58;6.17;;;4.87;;
14722;SDS011;7452;55.594;12.986;2023-04-29T03:11:25;7.50;;;4.33;;
14722;SDS011;7452;55.594;12.986;2023-04-29T03:13:53;7.43;;;4.47;;
14722;SDS011;7452;55.594;12.986;2023-04-29T03:16:20;7.90;;;4.67;;
14722;SDS011;7452;55.594;12.986;2023-04-29T03:18:47;5.93;;;5.03;;
14722;SDS011;7452;55.594;12.986;2023-04-29T03:21:14;7.17;;;5.23;;
14722;SDS011;7452;55.594;12.986;2023-04-29T03:23:43;8.40;;;4.70;;
14722;SDS011;7452;55.594;12.986;2023-04-29T03:26:09;8.13;;;5.00;;
14722;SDS011;7452;55.594;12.986;2023-04-29T03:28:36;7.77;;;4.90;;
14722;SDS011;7452;55.594;12.986;2023-04-29T03:31:03;9.50;;;5.20;;
14722;SDS011;7452;55.594;12.986;2023-04-29T03:33:30;8.60;;;4.80;;
14722;SDS011;7452;55.594;12.986;2023-04-29T03:35:57;7.87;;;4.87;;
14722;SDS011;7452;55.594;12.986;2023-04-29T03:38:24;7.33;;;4.97;;
14722;SDS011;7452;55.594;12.986;2023-04-29T03:40:52;7.93;;;5.23;;
14722;SDS011;7452;55.594;12.986;2023-04-29T03:43:19;6.33;;;4.53;;
14722;SDS011;7452;55.594;12.986;2023-04-29T03:45:46;9.67;;;5.27;;
14722;SDS011;7452;55.594;12.986;2023-04-29T03:48:13;6.93;;;5.50;;
14722;SDS011;7452;55.594;12.986;2023-04-29T03:50:40;8.93;;;5.67;;
14722;SDS011;7452;55.594;12.986;2023-04-29T03:53:07;9.73;;;6.10;;
14722;SDS011;7452;55.594;12.986;2023-04-29T03:55:33;11.50;;;7.73;;
14722;SDS011;7452;55.594;12.986;2023-04-29T03:58:02;13.00;;;8.83;;
14722;SDS011;7452;55.594;12.986;2023-04-29T04:00:29;9.23;;;6.13;;
14722;SDS011;7452;55.594;12.986;2023-04-29T04:02:56;9.23;;;5.73;;
14722;SDS011;7452;55.594;12.986;2023-04-29T04:05:23;7.50;;;5.83;;
14722;SDS011;7452;55.594;12.986;2023-04-29T04:07:50;9.43;;;5.87;;
14722;SDS011;7452;55.594;12.986;2023-04-29T04:10:17;7.13;;;5.27;;
14722;SDS011;7452;55.594;12.986;2023-04-29T04:12:44;8.00;;;5.27;;
14722;SDS011;7452;55.594;12.986;2023-04-29T04:15:13;10.07;;;5.43;;
14722;SDS011;7452;55.594;12.986;2023-04-29T04:17:41;5.80;;;5.07;;
14722;SDS011;7452;55.594;12.986;2023-04-29T04:20:08;8.63;;;5.90;;
14722;SDS011;7452;55.594;12.986;2023-04-29T04:22:36;7.60;;;5.77;;
14722;SDS011;7452;55.594;12.986;2023-04-29T04:25:03;7.63;;;5.40;;
14722;SDS011;7452;55.594;12.986;2023-04-29T04:27:31;6.97;;;5.53;;
14722;SDS011;7452;55.594;12.986;2023-04-29T04:29:58;11.60;;;6.37;;
14722;SDS011;7452;55.594;12.986;2023-04-29T04:32:26;8.87;;;6.33;;
14722;SDS011;7452;55.594;12.986;2023-04-29T04:34:53;6.00;;;4.97;;
14722;SDS011;7452;55.594;12.986;2023-04-29T04:37:20;9.00;;;6.17;;
14722;SDS011;7452;55.594;12.986;2023-04-29T04:39:47;12.63;;;9.23;;
14722;SDS011;7452;55.594;12.986;2023-04-29T04:42:14;9.00;;;5.40;;
14722;SDS011;7452;55.594;12.986;2023-04-29T04:44:41;8.17;;;4.37;;
14722;SDS011;7452;55.594;12.986;2023-04-29T04:47:07;10.70;;;4.83;;
14722;SDS011;7452;55.594;12.986;2023-04-29T04:49:37;5.07;;;4.30;;
14722;SDS011;7452;55.594;12.986;2023-04-29T04:52:03;7.83;;;4.53;;
14722;SDS011;7452;55.594;12.986;2023-04-29T04:54:30;7.13;;;4.50;;
14722;SDS011;7452;55.594;12.986;2023-04-29T04:56:57;7.67;;;4.87;;
14722;SDS011;7452;55.594;12.986;2023-04-29T04:59:24;7.73;;;4.83;;
14722;SDS011;7452;55.594;12.986;2023-04-29T05:01:51;6.23;;;4.70;;
14722;SDS011;7452;55.594;12.986;2023-04-29T05:04:18;6.63;;;4.43;;
14722;SDS011;7452;55.594;12.986;2023-04-29T05:06:46;7.57;;;5.03;;
14722;SDS011;7452;55.594;12.986;2023-04-29T05:09:13;7.23;;;4.57;;
14722;SDS011;7452;55.594;12.986;2023-04-29T05:11:40;6.63;;;4.73;;
14722;SDS011;7452;55.594;12.986;2023-04-29T05:14:07;5.97;;;4.70;;
14722;SDS011;7452;55.594;12.986;2023-04-29T05:16:33;7.00;;;5.10;;
14722;SDS011;7452;55.594;12.986;2023-04-29T05:19:00;7.20;;;4.97;;
14722;SDS011;7452;55.594;12.986;2023-04-29T05:21:27;6.53;;;4.70;;
14722;SDS011;7452;55.594;12.986;2023-04-29T05:23:56;7.53;;;4.67;;
14722;SDS011;7452;55.594;12.986;2023-04-29T05:26:23;9.60;;;5.10;;
14722;SDS011;7452;55.594;12.986;2023-04-29T05:28:50;7.53;;;5.00;;
14722;SDS011;7452;55.594;12.986;2023-04-29T05:31:17;8.23;;;4.13;;
14722;SDS011;7452;55.594;12.986;2023-04-29T05:33:44;6.33;;;4.40;;
14722;SDS011;7452;55.594;12.986;2023-04-29T05:36:11;6.87;;;4.93;;
14722;SDS011;7452;55.594;12.986;2023-04-29T05:38:38;5.97;;;4.77;;
14722;SDS011;7452;55.594;12.986;2023-04-29T05:41:07;8.20;;;4.70;;
14722;SDS011;7452;55.594;12.986;2023-04-29T05:43:34;7.90;;;4.47;;
14722;SDS011;7452;55.594;12.986;2023-04-29T05:46:01;7.67;;;4.60;;
14722;SDS011;7452;55.594;12.986;2023-04-29T05:48:28;7.83;;;5.00;;
14722;SDS011;7452;55.594;12.986;2023-04-29T05:50:55;6.10;;;4.87;;
14722;SDS011;7452;55.594;12.986;2023-04-29T05:53:21;9.80;;;4.63;;
14722;SDS011;7452;55.594;12.986;2023-04-29T05:55:48;7.33;;;4.97;;
14722;SDS011;7452;55.594;12.986;2023-04-29T05:58:17;15.03;;;11.57;;
14722;SDS011;7452;55.594;12.986;2023-04-29T06:00:44;20.63;;;14.73;;
14722;SDS011;7452;55.594;12.986;2023-04-29T06:03:13;7.70;;;5.23;;
14722;SDS011;7452;55.594;12.986;2023-04-29T06:05:40;7.73;;;4.70;;
14722;SDS011;7452;55.594;12.986;2023-04-29T06:08:07;7.83;;;4.73;;
14722;SDS011;7452;55.594;12.986;2023-04-29T06:10:34;8.63;;;5.23;;
14722;SDS011;7452;55.594;12.986;2023-04-29T06:13:02;7.37;;;4.97;;
14722;SDS011;7452;55.594;12.986;2023-04-29T06:15:30;7.40;;;5.10;;
14722;SDS011;7452;55.594;12.986;2023-04-29T06:17:57;7.87;;;4.80;;
14722;SDS011;7452;55.594;12.986;2023-04-29T06:20:24;7.10;;;4.60;;
14722;SDS011;7452;55.594;12.986;2023-04-29T06:22:51;9.07;;;4.60;;
14722;SDS011;7452;55.594;12.986;2023-04-29T06:25:18;5.97;;;4.57;;
14722;SDS011;7452;55.594;12.986;2023-04-29T06:27:45;10.73;;;4.57;;
14722;SDS011;7452;55.594;12.986;2023-04-29T06:30:12;6.47;;;5.30;;
14722;SDS011;7452;55.594;12.986;2023-04-29T06:32:40;16.30;;;12.40;;
14722;SDS011;7452;55.594;12.986;2023-04-29T06:35:07;13.13;;;9.43;;
14722;SDS011;7452;55.594;12.986;2023-04-29T06:37:34;8.30;;;4.73;;
14722;SDS011;7452;55.594;12.986;2023-04-29T06:40:01;6.43;;;4.40;;
14722;SDS011;7452;55.594;12.986;2023-04-29T06:42:29;7.87;;;4.20;;
14722;SDS011;7452;55.594;12.986;2023-04-29T06:44:56;5.93;;;3.87;;
14722;SDS011;7452;55.594;12.986;2023-04-29T06:47:22;6.07;;;3.97;;
14722;SDS011;7452;55.594;12.986;2023-04-29T06:49:51;5.33;;;3.97;;
14722;SDS011;7452;55.594;12.986;2023-04-29T06:52:18;6.30;;;4.53;;
14722;SDS011;7452;55.594;12.986;2023-04-29T06:54:45;7.93;;;4.07;;
14722;SDS011;7452;55.594;12.986;2023-04-29T06:57:12;8.00;;;4.00;;
14722;SDS011;7452;55.594;12.986;2023-04-29T06:59:39;7.57;;;4.17;;
14722;SDS011;7452;55.594;12.986;2023-04-29T07:02:05;7.00;;;4.00;;
14722;SDS011;7452;55.594;12.986;2023-04-29T07:04:32;7.07;;;4.70;;
14722;SDS011;7452;55.594;12.986;2023-04-29T07:07:02;9.17;;;3.77;;
14722;SDS011;7452;55.594;12.986;2023-04-29T07:09:29;7.83;;;3.90;;
14722;SDS011;7452;55.594;12.986;2023-04-29T07:11:56;5.83;;;3.70;;
14722;SDS011;7452;55.594;12.986;2023-04-29T07:14:23;7.13;;;3.60;;
14722;SDS011;7452;55.594;12.986;2023-04-29T07:16:53;5.63;;;3.60;;
14722;SDS011;7452;55.594;12.986;2023-04-29T07:19:20;8.77;;;3.33;;
14722;SDS011;7452;55.594;12.986;2023-04-29T07:21:47;4.83;;;3.27;;
14722;SDS011;7452;55.594;12.986;2023-04-29T07:24:15;5.60;;;2.77;;
14722;SDS011;7452;55.594;12.986;2023-04-29T07:26:42;7.83;;;2.83;;
14722;SDS011;7452;55.594;12.986;2023-04-29T07:29:10;3.30;;;2.87;;
14722;SDS011;7452;55.594;12.986;2023-04-29T07:31:36;5.20;;;3.40;;
14722;SDS011;7452;55.594;12.986;2023-04-29T07:34:03;4.50;;;3.53;;
14722;SDS011;7452;55.594;12.986;2023-04-29T07:36:30;4.40;;;3.20;;
14722;SDS011;7452;55.594;12.986;2023-04-29T07:38:57;5.27;;;3.17;;
14722;SDS011;7452;55.594;12.986;2023-04-29T07:41:25;6.70;;;3.33;;
14722;SDS011;7452;55.594;12.986;2023-04-29T07:43:53;5.13;;;2.90;;
14722;SDS011;7452;55.594;12.986;2023-04-29T07:46:19;4.23;;;3.27;;
14722;SDS011;7452;55.594;12.986;2023-04-29T07:48:46;6.73;;;3.33;;
14722;SDS011;7452;55.594;12.986;2023-04-29T07:51:13;5.17;;;3.00;;
14722;SDS011;7452;55.594;12.986;2023-04-29T07:53:40;4.83;;;3.30;;
14722;SDS011;7452;55.594;12.986;2023-04-29T07:56:07;5.87;;;5.17;;
14722;SDS011;7452;55.594;12.986;2023-04-29T07:58:36;8.77;;;5.13;;
14722;SDS011;7452;55.594;12.986;2023-04-29T08:01:06;4.97;;;3.50;;
14722;SDS011;7452;55.594;12.986;2023-04-29T08:03:34;4.17;;;3.20;;
14722;SDS011;7452;55.594;12.986;2023-04-29T08:06:01;5.63;;;3.40;;
14722;SDS011;7452;55.594;12.986;2023-04-29T08:08:28;5.80;;;2.93;;
14722;SDS011;7452;55.594;12.986;2023-04-29T08:10:55;5.90;;;3.53;;
14722;SDS011;7452;55.594;12.986;2023-04-29T08:13:22;4.53;;;3.70;;
14722;SDS011;7452;55.594;12.986;2023-04-29T08:15:50;6.07;;;3.63;;
14722;SDS011;7452;55.594;12.986;2023-04-29T08:18:18;5.03;;;3.20;;
14722;SDS011;7452;55.594;12.986;2023-04-29T08:20:46;7.90;;;7.10;;
14722;SDS011;7452;55.594;12.986;2023-04-29T08:23:13;10.57;;;7.83;;
14722;SDS011;7452;55.594;12.986;2023-04-29T08:25:40;6.93;;;4.10;;
14722;SDS011;7452;55.594;12.986;2023-04-29T08:28:08;3.73;;;3.13;;
14722;SDS011;7452;55.594;12.986;2023-04-29T08:30:36;4.63;;;3.40;;
14722;SDS011;7452;55.594;12.986;2023-04-29T08:33:06;4.40;;;3.30;;
14722;SDS011;7452;55.594;12.986;2023-04-29T08:35:33;6.03;;;3.57;;
14722;SDS011;7452;55.594;12.986;2023-04-29T08:38:02;3.70;;;2.60;;
14722;SDS011;7452;55.594;12.986;2023-04-29T08:40:30;5.27;;;3.07;;
14722;SDS011;7452;55.594;12.986;2023-04-29T08:42:59;4.33;;;2.83;;
14722;SDS011;7452;55.594;12.986;2023-04-29T08:45:28;4.30;;;2.70;;
14722;SDS011;7452;55.594;12.986;2023-04-29T08:47:56;5.87;;;2.90;;
14722;SDS011;7452;55.594;12.986;2023-04-29T08:50:25;5.03;;;3.07;;
14722;SDS011;7452;55.594;12.986;2023-04-29T08:52:53;6.30;;;3.10;;
14722;SDS011;7452;55.594;12.986;2023-04-29T08:55:20;5.20;;;3.30;;
14722;SDS011;7452;55.594;12.986;2023-04-29T08:57:48;4.50;;;3.23;;
14722;SDS011;7452;55.594;12.986;2023-04-29T09:00:18;4.20;;;3.67;;
14722;SDS011;7452;55.594;12.986;2023-04-29T09:02:46;4.47;;;3.03;;
14722;SDS011;7452;55.594;12.986;2023-04-29T09:05:15;8.73;;;5.97;;
14722;SDS011;7452;55.594;12.986;2023-04-29T09:07:44;6.97;;;5.67;;
14722;SDS011;7452;55.594;12.986;2023-04-29T09:10:11;6.27;;;4.10;;
14722;SDS011;7452;55.594;12.986;2023-04-29T09:12:39;7.73;;;4.00;;
14722;SDS011;7452;55.594;12.986;2023-04-29T09:15:06;4.93;;;3.77;;
14722;SDS011;7452;55.594;12.986;2023-04-29T09:17:37;5.37;;;4.20;;
14722;SDS011;7452;55.594;12.986;2023-04-29T09:22:55;6.60;;;4.60;;
14722;SDS011;7452;55.594;12.986;2023-04-29T09:25:23;6.03;;;5.00;;
14722;SDS011;7452;55.594;12.986;2023-04-29T09:27:51;7.43;;;5.20;;
14722;SDS011;7452;55.594;12.986;2023-04-29T09:30:18;6.90;;;4.23;;
14722;SDS011;7452;55.594;12.986;2023-04-29T09:32:45;5.70;;;4.90;;
14722;SDS011;7452;55.594;12.986;2023-04-29T09:35:28;5.70;;;4.83;;
14722;SDS011;7452;55.594;12.986;2023-04-29T09:38:07;6.43;;;4.60;;
14722;SDS011;7452;55.594;12.986;2023-04-29T09:40:35;6.13;;;4.73;;
14722;SDS011;7452;55.594;12.986;2023-04-29T09:43:02;6.10;;;4.87;;
14722;SDS011;7452;55.594;12.986;2023-04-29T09:45:35;6.60;;;4.40;;
14722;SDS011;7452;55.594;12.986;2023-04-29T09:48:02;6.73;;;4.90;;
14722;SDS011;7452;55.594;12.986;2023-04-29T09:50:30;5.90;;;4.70;;
14722;SDS011;7452;55.594;12.986;2023-04-29T09:52:57;6.47;;;4.60;;
14722;SDS011;7452;55.594;12.986;2023-04-29T09:55:26;6.77;;;5.17;;
14722;SDS011;7452;55.594;12.986;2023-04-29T09:57:53;8.87;;;4.70;;
14722;SDS011;7452;55.594;12.986;2023-04-29T10:00:20;5.87;;;4.77;;
14722;SDS011;7452;55.594;12.986;2023-04-29T10:02:48;7.40;;;4.63;;
14722;SDS011;7452;55.594;12.986;2023-04-29T10:05:15;5.70;;;4.53;;
14722;SDS011;7452;55.594;12.986;2023-04-29T10:07:44;7.13;;;4.97;;
14722;SDS011;7452;55.594;12.986;2023-04-29T10:10:14;8.73;;;5.10;;
14722;SDS011;7452;55.594;12.986;2023-04-29T10:12:42;6.00;;;4.40;;
14722;SDS011;7452;55.594;12.986;2023-04-29T10:15:12;5.00;;;4.50;;
14722;SDS011;7452;55.594;12.986;2023-04-29T10:17:48;6.53;;;4.53;;
14722;SDS011;7452;55.594;12.986;2023-04-29T10:20:21;5.87;;;4.77;;
14722;SDS011;7452;55.594;12.986;2023-04-29T10:22:49;6.40;;;4.90;;
14722;SDS011;7452;55.594;12.986;2023-04-29T10:25:18;5.50;;;4.77;;
14722;SDS011;7452;55.594;12.986;2023-04-29T10:27:46;7.67;;;5.00;;
14722;SDS011;7452;55.594;12.986;2023-04-29T10:30:17;8.47;;;5.03;;
14722;SDS011;7452;55.594;12.986;2023-04-29T10:32:46;6.90;;;5.17;;
14722;SDS011;7452;55.594;12.986;2023-04-29T10:35:14;5.20;;;4.70;;
14722;SDS011;7452;55.594;12.986;2023-04-29T10:37:43;7.83;;;4.70;;
14722;SDS011;7452;55.594;12.986;2023-04-29T10:40:11;6.53;;;5.55;;
14722;SDS011;7452;55.594;12.986;2023-04-29T10:42:44;6.30;;;5.20;;
14722;SDS011;7452;55.594;12.986;2023-04-29T10:45:22;6.40;;;5.20;;
14722;SDS011;7452;55.594;12.986;2023-04-29T10:48:10;6.88;;;4.97;;
14722;SDS011;7452;55.594;12.986;2023-04-29T10:50:39;6.13;;;4.95;;
14722;SDS011;7452;55.594;12.986;2023-04-29T10:53:26;5.30;;;4.78;;
14722;SDS011;7452;55.594;12.986;2023-04-29T10:55:55;7.82;;;4.85;;
14722;SDS011;7452;55.594;12.986;2023-04-29T10:58:35;6.68;;;4.72;;
14722;SDS011;7452;55.594;12.986;2023-04-29T11:01:03;5.82;;;4.60;;
14722;SDS011;7452;55.594;12.986;2023-04-29T11:03:47;5.80;;;5.00;;
14722;SDS011;7452;55.594;12.986;2023-04-29T11:06:19;6.72;;;4.90;;
14722;SDS011;7452;55.594;12.986;2023-04-29T11:08:58;6.40;;;5.32;;
14722;SDS011;7452;55.594;12.986;2023-04-29T11:11:31;8.75;;;4.50;;
14722;SDS011;7452;55.594;12.986;2023-04-29T11:14:11;7.45;;;5.35;;
14722;SDS011;7452;55.594;12.986;2023-04-29T11:16:45;6.85;;;5.35;;
14722;SDS011;7452;55.594;12.986;2023-04-29T11:19:13;6.78;;;5.07;;
14722;SDS011;7452;55.594;12.986;2023-04-29T11:21:41;6.63;;;5.75;;
14722;SDS011;7452;55.594;12.986;2023-04-29T11:24:10;6.47;;;5.75;;
14722;SDS011;7452;55.594;12.986;2023-04-29T11:26:39;5.80;;;5.30;;
14722;SDS011;7452;55.594;12.986;2023-04-29T11:29:07;6.43;;;4.80;;
14722;SDS011;7452;55.594;12.986;2023-04-29T11:31:36;5.93;;;5.05;;
14722;SDS011;7452;55.594;12.986;2023-04-29T11:34:04;5.72;;;5.03;;
14722;SDS011;7452;55.594;12.986;2023-04-29T11:36:31;6.13;;;4.90;;
14722;SDS011;7452;55.594;12.986;2023-04-29T11:38:59;7.25;;;5.40;;
14722;SDS011;7452;55.594;12.986;2023-04-29T11:41:27;9.40;;;6.00;;
14722;SDS011;7452;55.594;12.986;2023-04-29T11:43:55;9.13;;;6.10;;
14722;SDS011;7452;55.594;12.986;2023-04-29T11:46:23;5.53;;;4.93;;
14722;SDS011;7452;55.594;12.986;2023-04-29T11:48:56;5.70;;;5.10;;
14722;SDS011;7452;55.594;12.986;2023-04-29T11:51:23;5.38;;;4.85;;
14722;SDS011;7452;55.594;12.986;2023-04-29T11:53:52;5.45;;;4.93;;
14722;SDS011;7452;55.594;12.986;2023-04-29T11:56:20;5.28;;;4.72;;
14722;SDS011;7452;55.594;12.986;2023-04-29T11:58:49;7.85;;;5.72;;
14722;SDS011;7452;55.594;12.986;2023-04-29T12:01:19;6.05;;;4.82;;
14722;SDS011;7452;55.594;12.986;2023-04-29T12:03:47;6.72;;;5.55;;
14722;SDS011;7452;55.594;12.986;2023-04-29T12:06:16;5.35;;;4.60;;
14722;SDS011;7452;55.594;12.986;2023-04-29T12:08:45;6.95;;;5.15;;
14722;SDS011;7452;55.594;12.986;2023-04-29T12:11:12;5.88;;;4.65;;
14722;SDS011;7452;55.594;12.986;2023-04-29T12:13:39;5.40;;;4.90;;
14722;SDS011;7452;55.594;12.986;2023-04-29T12:16:06;6.93;;;5.28;;
14722;SDS011;7452;55.594;12.986;2023-04-29T12:18:33;5.32;;;4.85;;
14722;SDS011;7452;55.594;12.986;2023-04-29T12:21:01;5.55;;;5.00;;
14722;SDS011;7452;55.594;12.986;2023-04-29T12:23:29;6.68;;;5.05;;
14722;SDS011;7452;55.594;12.986;2023-04-29T12:25:56;6.10;;;5.07;;
14722;SDS011;7452;55.594;12.986;2023-04-29T12:28:25;5.78;;;5.20;;
14722;SDS011;7452;55.594;12.986;2023-04-29T12:30:53;5.80;;;4.85;;
14722;SDS011;7452;55.594;12.986;2023-04-29T12:33:20;6.00;;;5.40;;
14722;SDS011;7452;55.594;12.986;2023-04-29T12:35:49;6.00;;;5.20;;
14722;SDS011;7452;55.594;12.986;2023-04-29T12:38:19;5.75;;;5.00;;
14722;SDS011;7452;55.594;12.986;2023-04-29T12:40:49;6.80;;;5.15;;
14722;SDS011;7452;55.594;12.986;2023-04-29T12:43:16;5.72;;;5.22;;
14722;SDS011;7452;55.594;12.986;2023-04-29T12:45:43;6.05;;;5.40;;
14722;SDS011;7452;55.594;12.986;2023-04-29T12:48:10;7.32;;;5.68;;
14722;SDS011;7452;55.594;12.986;2023-04-29T12:50:38;7.80;;;5.60;;
14722;SDS011;7452;55.594;12.986;2023-04-29T12:53:05;6.55;;;5.47;;
14722;SDS011;7452;55.594;12.986;2023-04-29T12:55:33;7.38;;;5.55;;
14722;SDS011;7452;55.594;12.986;2023-04-29T12:58:01;6.28;;;5.60;;
14722;SDS011;7452;55.594;12.986;2023-04-29T13:00:29;8.07;;;5.70;;
14722;SDS011;7452;55.594;12.986;2023-04-29T13:02:56;7.97;;;6.10;;
14722;SDS011;7452;55.594;12.986;2023-04-29T13:05:22;10.32;;;6.38;;
14722;SDS011;7452;55.594;12.986;2023-04-29T13:07:49;10.93;;;6.23;;
14722;SDS011;7452;55.594;12.986;2023-04-29T13:10:16;7.20;;;6.23;;
14722;SDS011;7452;55.594;12.986;2023-04-29T13:12:43;6.83;;;5.77;;
14722;SDS011;7452;55.594;12.986;2023-04-29T13:15:13;5.97;;;5.03;;
14722;SDS011;7452;55.594;12.986;2023-04-29T13:17:40;6.63;;;4.83;;
14722;SDS011;7452;55.594;12.986;2023-04-29T13:20:07;7.00;;;4.03;;
14722;SDS011;7452;55.594;12.986;2023-04-29T13:22:35;3.53;;;2.70;;
14722;SDS011;7452;55.594;12.986;2023-04-29T13:25:03;4.30;;;1.90;;
14722;SDS011;7452;55.594;12.986;2023-04-29T13:27:31;2.87;;;1.43;;
14722;SDS011;7452;55.594;12.986;2023-04-29T13:29:58;5.10;;;1.57;;
14722;SDS011;7452;55.594;12.986;2023-04-29T13:32:26;2.03;;;1.43;;
14722;SDS011;7452;55.594;12.986;2023-04-29T13:34:53;2.83;;;1.30;;
14722;SDS011;7452;55.594;12.986;2023-04-29T13:37:20;5.73;;;2.37;;
14722;SDS011;7452;55.594;12.986;2023-04-29T13:39:47;3.30;;;2.23;;
14722;SDS011;7452;55.594;12.986;2023-04-29T13:42:14;5.40;;;2.40;;
14722;SDS011;7452;55.594;12.986;2023-04-29T13:44:41;4.57;;;3.10;;
14722;SDS011;7452;55.594;12.986;2023-04-29T13:47:09;4.10;;;3.37;;
14722;SDS011;7452;55.594;12.986;2023-04-29T13:49:39;4.10;;;2.97;;
14722;SDS011;7452;55.594;12.986;2023-04-29T13:52:08;5.67;;;3.30;;
14722;SDS011;7452;55.594;12.986;2023-04-29T13:54:35;4.53;;;3.10;;
14722;SDS011;7452;55.594;12.986;2023-04-29T13:57:02;3.63;;;2.60;;
14722;SDS011;7452;55.594;12.986;2023-04-29T13:59:30;4.17;;;2.50;;
14722;SDS011;7452;55.594;12.986;2023-04-29T14:01:57;4.97;;;2.70;;
14722;SDS011;7452;55.594;12.986;2023-04-29T14:04:24;4.90;;;2.53;;
14722;SDS011;7452;55.594;12.986;2023-04-29T14:06:53;4.63;;;2.37;;
14722;SDS011;7452;55.594;12.986;2023-04-29T14:09:20;3.37;;;1.93;;
14722;SDS011;7452;55.594;12.986;2023-04-29T14:11:48;3.73;;;2.13;;
14722;SDS011;7452;55.594;12.986;2023-04-29T14:14:15;3.63;;;1.70;;
14722;SDS011;7452;55.594;12.986;2023-04-29T14:16:42;2.13;;;1.70;;
14722;SDS011;7452;55.594;12.986;2023-04-29T14:19:09;5.38;;;2.25;;
14722;SDS011;7452;55.594;12.986;2023-04-29T14:21:36;4.03;;;1.67;;
14722;SDS011;7452;55.594;12.986;2023-04-29T14:24:05;2.38;;;1.50;;
14722;SDS011;7452;55.594;12.986;2023-04-29T14:26:32;2.60;;;1.40;;
14722;SDS011;7452;55.594;12.986;2023-04-29T14:29:00;4.53;;;1.48;;
14722;SDS011;7452;55.594;12.986;2023-04-29T14:31:28;2.35;;;1.48;;
14722;SDS011;7452;55.594;12.986;2023-04-29T14:33:56;4.05;;;1.17;;
14722;SDS011;7452;55.594;12.986;2023-04-29T14:36:24;2.53;;;1.40;;
14722;SDS011;7452;55.594;12.986;2023-04-29T14:38:52;2.58;;;1.40;;
14722;SDS011;7452;55.594;12.986;2023-04-29T14:41:20;3.63;;;1.50;;
14722;SDS011;7452;55.594;12.986;2023-04-29T14:43:47;5.63;;;1.55;;
14722;SDS011;7452;55.594;12.986;2023-04-29T14:46:14;4.53;;;1.42;;
14722;SDS011;7452;55.594;12.986;2023-04-29T14:48:41;7.53;;;1.60;;
14722;SDS011;7452;55.594;12.986;2023-04-29T14:51:08;4.15;;;1.45;;
14722;SDS011;7452;55.594;12.986;2023-04-29T14:53:35;2.95;;;1.30;;
14722;SDS011;7452;55.594;12.986;2023-04-29T14:56:03;3.25;;;1.27;;